Accueil
METAR-TAF:

METAR-TAF

Aéroports :

Aéroport de Liège

Liège, Belgique

latitude: 50-39N, longitude: 005-27E, altitude: 186 m

Observation

Le bulletin a été fait il y a 22 minutes, à 13:50 UTC
Vent 8 kt de ouest
Température 19°C
Humidité 78%
Pression 1025 hPa
Visibilité 10 km ou plus
Quelques nuages à une hauteur de 1700 ft
Nuages fragmentés à une hauteur de 3000 ft

METAR: EBLG 191350Z 27008KT 9999 FEW017 BKN030 19/15 Q1025 NOSIG

Heure: 16:12 (14:12 UTC)

Prévision

Le bulletin a été fait il y a 3 heures et 6 minutes, à 11:06 UTC
Prévision valable du 19 à 12 UTC au 20 à 18 UTC
Vent 7 kt de ouest/sud-ouest
Visibilité 10 km ou plus
Nuages épars à une hauteur de 1700 ft
Nuages fragmentés à une hauteur de 3500 ft
Probabilité 30% :
Temporairement
du 20 à 04 UTC au 20 à 07 UTC
Nuages fragmentés à une hauteur de 1000 ft

TAF: EBLG 191106Z 1912/2018 25007KT 9999 SCT017 BKN035 PROB30 TEMPO 2004/2007 BKN010

Observations et prévisions météorologiques de plus de 4000 aéroports (messages METAR et TAF).

Les stations disponibles sont représentées par des disques jaunes et rouges sur la carte.

Passer la souris dessus pour voir le nom de la station.

Cliquer dessus pour voir les observations et prévisions météorologiques.

Pour changer de carte: cliquez sur les boutons verts avec une croix noire pour zoomer, sur le bouton vert avec un tiret pour effectuer un zoom arrière, ou sur les flèches vertes pour les cartes adjacentes.


METAR-TAF: